CDT,Max TemperatureF,Mean TemperatureF,Min TemperatureF,Max Dew PointF,MeanDew PointF,Min DewpointF,Max Humidity, Mean Humidity, Min Humidity, Max Sea Level PressureIn, Mean Sea Level PressureIn, Min Sea Level PressureIn, Max VisibilityMiles, Mean VisibilityMiles, Min VisibilityMiles, Max Wind SpeedMPH, Mean Wind SpeedMPH, Max Gust SpeedMPH,PrecipitationIn, CloudCover, Events, WindDirDegrees
2012-10-1,23,21,19,23,21,19,100,94,88,29.91,29.82,29.78,15,10,6,5,2,,0.01,8,Snow,137
2012-10-2,23,20,17,21,19,16,100,89,80,30.07,30.03,29.94,15,11,7,17,11,,0.00,7,Snow,350
2012-10-3,18,16,13,14,11,9,86,77,61,29.99,29.91,29.87,15,14,6,24,15,31,0.00,4,Snow,348
2012-10-4,13,8,1,12,8,-2,92,85,62,29.99,29.97,29.93,15,15,15,17,10,23,0.00,1,,338
2012-10-5,2,0,-2,-2,-6,-8,85,78,66,29.97,29.94,29.87,15,12,2,4,1,,0.00,2,Fog,106
2012-10-6,14,6,-2,14,10,3,100,90,77,29.83,29.77,29.74,15,6,0,13,4,,0.12,7,Snow,68
2012-10-7,5,2,-1,1,-1,-6,85,78,61,29.94,29.92,29.85,12,8,2,5,2,,0.02,6,Snow,93
2012-10-8,-6,-10,-14,-4,-16,-22,78,70,51,29.87,29.80,29.76,15,11,4,5,1,,0.01,3,Fog-Snow,135
2012-10-9,-5,-9,-13,-11,-16,-20,77,71,58,29.95,29.92,29.86,15,13,1,4,1,,0.00,4,Snow,67
2012-10-10,-1,-8,-14,-7,-10,-17,78,74,60,29.97,29.95,29.94,15,7,0,5,1,,0.00,6,Fog-Snow,139
2012-10-11,-8,-12,-15,-15,-19,-22,77,69,55,30.08,30.02,29.98,15,13,3,5,1,,0.00,3,Snow,129
2012-10-12,3,-7,-15,-2,-15,-22,85,73,56,30.10,30.03,29.86,15,15,15,2,0,,0.00,2,,54
2012-10-13,10,1,-8,7,0,-11,92,80,67,29.91,29.83,29.78,15,15,15,5,2,,0.00,5,,106
2012-10-14,1,-4,-9,-4,-11,-15,78,72,56,29.92,29.87,29.84,15,15,15,6,2,,0.00,3,,130
2012-10-15,3,-2,-7,-2,-7,-13,78,75,63,30.03,29.99,29.95,15,15,15,6,1,,0.00,4,,126
2012-10-16,17,8,-2,14,6,-2,93,86,78,30.34,30.19,30.05,15,15,15,12,5,,0.00,5,,151
2012-10-17,10,3,-5,12,-2,-11,100,83,64,30.38,30.34,30.26,15,5,0,6,3,,0.00,7,Fog-Snow,281
2012-10-18,2,-5,-12,-2,-10,-18,92,75,61,30.22,30.07,29.98,15,15,15,10,3,,0.00,0,Fog,268
2012-10-19,3,-5,-13,-2,-11,-20,85,74,59,30.12,30.03,29.97,15,15,15,9,2,,0.00,0,,243
2012-10-20,-12,-14,-17,-20,-22,-24,70,67,51,30.35,30.22,30.13,15,15,15,4,1,,0.00,1,,99
2012-10-21,-11,-14,-18,-18,-22,-26,76,68,53,30.55,30.49,30.41,15,12,0,6,2,,0.00,2,Fog,108
2012-10-22,7,-4,-16,5,1,-12,92,81,64,30.51,30.49,30.46,15,12,0,17,8,,0.00,7,Fog-Snow,142
2012-10-23,15,10,6,12,7,1,86,82,66,30.61,30.56,30.52,15,11,2,16,11,18,0.01,8,Snow,144
2012-10-24,16,13,8,14,10,5,93,84,74,30.69,30.66,30.59,15,11,4,16,11,,0.00,7,Snow,149
2012-10-25,3,-1,-5,0,-6,-11,92,76,62,30.56,30.47,30.42,15,11,2,13,5,,0.02,3,Snow,151
2012-10-26,-6,-11,-16,-9,-18,-26,77,69,52,30.41,30.38,30.34,15,9,0,6,2,,0.00,1,Fog-Snow,86
2012-10-27,-9,-14,-20,-15,-22,-31,77,67,40,30.32,30.17,29.86,15,12,5,4,1,,0.01,2,Snow,55
2012-10-28,-9,-16,-23,-17,-24,-32,77,66,47,29.95,29.81,29.74,15,10,2,4,3,,0.00,5,Snow,50
2012-10-29,-11,-17,-25,-20,-25,-33,70,66,49,30.39,30.20,30.00,15,12,3,5,2,,0.00,5,Snow,64
2012-10-30,-23,-25,-27,-31,-33,-35,69,64,48,30.61,30.55,30.44,15,15,15,4,1,,0.00,1,Snow,97
2012-10-31,-25,-27,-29,-33,-35,-38,69,63,45,30.59,30.51,30.40,15,15,15,2,1,,0.00,1,,109